This is the latest recevied weather packets stored in our database for station/object N5ZP. If no packets are shown the sender has not sent any weather packets the latest 10 day(s).
| Time | Temp. | Humidity | Pressure | Rain* | Wind** | Luminosity | Snow |
|---|---|---|---|---|---|---|---|
| 1778074812 | 11.11° C | 85% | 1012.4 hPa | 0 mm | - | 13 W/m² | - |
| 1778074509 | 11.11° C | 85% | 1012.4 hPa | 0 mm | - | 19 W/m² | - |
| 1778074206 | 11.11° C | 85% | 1011.6 hPa | 0 mm | - | 33 W/m² | - |
| 1778073903 | 11.11° C | 85% | 1011.5 hPa | 0 mm | - | 41 W/m² | - |
| 1778073601 | 11.11° C | 85% | 1011.1 hPa | 0 mm | - | 52 W/m² | - |
| 1778073298 | 10.56° C | 85% | 1011.2 hPa | 0 mm | - | 38 W/m² | - |
| 1778072994 | 10.56° C | 85% | 1011.2 hPa | 0 mm | - | 40 W/m² | - |
| 1778072690 | 10.56° C | 85% | 1011.4 hPa | 0 mm | - | 28 W/m² | - |
| 1778072388 | 11.11° C | 85% | 1011.6 hPa | 0 mm | - | 27 W/m² | - |
| 1778072086 | 10.56° C | 85% | 1010.9 hPa | 0 mm | - | 25 W/m² | - |
| 1778071784 | 10.56° C | 84% | 1011.1 hPa | 0 mm | - | 22 W/m² | - |
| 1778071481 | 10.56° C | 85% | 1010.7 hPa | 0 mm | - | 26 W/m² | - |
| 1778071179 | 10.56° C | 85% | 1010.7 hPa | 0 mm | - | 16 W/m² | - |
| 1778070877 | 10.56° C | 85% | 1010.6 hPa | 0 mm | - | 13 W/m² | - |
| 1778070574 | 10.56° C | 85% | 1010.5 hPa | 0 mm | - | 14 W/m² | - |
| 1778070271 | 10.56° C | 84% | 1010.9 hPa | 0 mm | - | 8 W/m² | - |
| 1778069970 | 11.11° C | 84% | 1010.9 hPa | 0 mm | - | 7 W/m² | - |
| 1778069666 | 11.11° C | 84% | 1010.6 hPa | 0 mm | - | 9 W/m² | - |
| 1778069363 | 11.11° C | 84% | 1010.3 hPa | 0 mm | - | 6 W/m² | - |
| 1778069061 | 11.11° C | 84% | 1010.6 hPa | 0 mm | - | 5 W/m² | - |
| 1778068757 | 11.11° C | 83% | 1010.4 hPa | 0 mm | - | 3 W/m² | - |
| 1778068456 | 11.11° C | 83% | 1010.6 hPa | 0 mm | - | 2 W/m² | - |
| 1778068154 | 11.67° C | 82% | 1010.5 hPa | 0 mm | - | 1 W/m² | - |
| 1778067851 | 11.67° C | 80% | 1010.5 hPa | 0 mm | - | 1 W/m² | - |
| 1778067550 | 11.67° C | 79% | 1010.2 hPa | 0 mm | - | 0 W/m² | - |
* Rain latest hour (hover to see other rain measurements)
** Current wind speed in m/s (hover to see current wind gust speed)